Gianluca Marchetti

Scout - Udinese
25 Nov 2027
Donnerstag
Verarbeitung

Persönlichkeit

Anpassungsfähigkeit (4) Ehrgeiz (3) Kontroverse (17) Loyalität (1) Druck (3) Professionalität (10) Fairness (10) Temperament (5)

Profil

Trainerstil Demokratisch
Lizenz Nationale B
Entschlossenheit 9
Menschenführung 7
Motivation 12
Disziplin 9
Arbeitszufriedenheit
100%
Ermüdung
0%
Rolle Scout
Gehalt 26.0K p/W
Vertrag 14.03.2029

Leistung

Verhalten Gut
Trainingseffektivität
46%
Spielerentwicklung
65%
Verletzungsprävention
65%
Taktische Umsetzung
40%

Letzte Ereignisse

Nahm an einer Scouting-Besprechung teil jetzt
Nahm an einer Scouting-Besprechung teil jetzt
Nahm an einer Scouting-Besprechung teil 7T her
Nahm an einer Scouting-Besprechung teil 7T her
Nahm an einer Scouting-Besprechung teil 7T her
Nahm an einer Scouting-Besprechung teil 7T her
Nahm an einer Scouting-Besprechung teil 14T her
Nahm an einer Scouting-Besprechung teil 14T her

Aktuell beobachtet

67
Spieler Verein Status Fähigkeit Vertrauen Beobachtet Zuletzt beobachtet Letzte Stimme
Darryl Bakola Padova Aktiv 105 / 124 40% 1 16.08.2027 -
Kazunari Kita Real Sociedad Aktiv 112 / 105 40% 1 16.08.2027 -
Alejandro Almaraz Nueva Chicago Aktiv 124 / 117 40% 1 02.08.2027 -
Rhys Chadwick Leyton Orient Aktiv 92 / 116 40% 1 26.07.2027 -
Freddy Murillo Valencia Aktiv 106 / 128 40% 1 26.07.2027 -
Job Ochieng Real Sociedad Aktiv 108 / 111 40% 2 28.05.2027 -
Filippo Distefano Empoli Aktiv 117 / 121 40% 3 26.05.2027 -
Luca Franco Arsenal Aktiv 97 / 107 40% 1 24.05.2027 -
Assane Diao Lazio Aktiv 155 / 147 40% 1 21.05.2027 -
Cristian Shpendi Cesena Aktiv 130 / 132 40% 2 20.05.2027 -
Stiven Shpendi Empoli Aktiv 130 / 127 40% 3 18.05.2027 -
Rocco Vata Watford Aktiv 116 / 127 40% 3 18.05.2027 -
Eren Aydın Zira Aktiv 123 / 108 40% 2 16.05.2027 -
David Romero Parma Aktiv 119 / 124 40% 1 06.05.2027 -
Jorge Meireles AVS Aktiv 111 / 116 40% 1 05.05.2027 -
Rayan Bournemouth Aktiv 128 / 144 40% 4 04.05.2027 -
Santiago Castro AS Roma Aktiv 140 / 146 40% 1 29.04.2027 -
Manfred Ugalde Spartak Moscow Aktiv 131 / 131 40% 3 14.04.2027 -
Exequiel Zeballos Fiorentina Aktiv 123 / 140 40% 1 06.04.2027 -
Matija Frigan Parma Aktiv 135 / 122 40% 1 05.04.2027 -
Thomas Waddingham Portsmouth Aktiv 117 / 113 40% 1 02.04.2027 -
Ángel Alarcón Feyenoord Aktiv 124 / 128 40% 1 30.03.2027 -
Berna CSKA 1948 Aktiv 114 / 113 40% 3 08.03.2027 -
Emanuele Schimmenti Potenza Aktiv 121 / 113 40% 1 03.03.2027 -
Manu Koné AS Roma Aktiv 170 / 157 40% 5 03.02.2027 -
Alessandro Bastoni Inter Aktiv 172 / 169 40% 1 02.02.2027 -
Crysencio Summerville Al-Hilal Aktiv 144 / 136 40% 1 27.12.2026 -
Randal Kolo Muani Juventus Aktiv 153 / 143 40% 3 24.12.2026 -
Jhon Jhon Zenit Aktiv 140 / 134 40% 1 24.12.2026 -
Romano Schmid Frosinone Aktiv 141 / 140 40% 3 23.12.2026 -
Edon Zhegrova Juventus Aktiv 144 / 145 40% 2 23.12.2026 -
Nicolò Cambiaghi Bologna Aktiv 128 / 144 40% 1 20.12.2026 -
Hany Mukhtar Spezia Aktiv 128 / 134 40% 1 20.12.2026 -
Idrissa Touré Monza Aktiv 141 / 133 40% 1 09.12.2026 -
Donyell Malen AS Roma Aktiv 156 / 148 40% 2 03.12.2026 -
Mattéo Tramoni Pisa Aktiv 144 / 135 40% 1 01.12.2026 -
Carlos Augusto Inter Aktiv 160 / 154 40% 2 30.11.2026 -
Reda Khadra Qarabag Aktiv 142 / 133 40% 1 30.11.2026 -
Giacomo Raspadori Atalanta Aktiv 138 / 138 40% 4 28.11.2026 -
Yoan Bonny Inter Aktiv 150 / 146 40% 2 25.11.2026 -
Curtis Jones Inter Aktiv 149 / 153 40% 4 24.11.2026 Beobachten
Jesús Rodríguez Como Aktiv 144 / 141 40% 2 24.11.2026 -
Luís Henrique Inter Aktiv 146 / 134 40% 2 22.11.2026 -
Federico Dimarco Inter Aktiv 155 / 156 40% 1 17.11.2026 -
Matías Soulé AS Roma Aktiv 145 / 155 40% 2 10.11.2026 Mehr Infos nötig
Mauro Arambarri River Plate Aktiv 163 / 164 40% 1 03.11.2026 -
Stanislav Lobotka Galatasaray Aktiv 150 / 148 40% 2 02.11.2026 -
Brais Méndez Columbus Crew Aktiv 161 / 145 40% 1 29.10.2026 -
Nadir Zortea Bologna Aktiv 134 / 140 40% 1 27.10.2026 -
Iliman N'Diaye Everton Aktiv 160 / 153 40% 1 14.10.2026 -
Matt O'Riley Brighton Aktiv 142 / 150 40% 2 12.10.2026 -
Jacob Ramsey Newcastle United Aktiv 151 / 153 40% 1 10.10.2026 -
Francisco Conceição Juventus Aktiv 159 / 163 40% 1 08.10.2026 Mehr Infos nötig
Jack Rudoni Coventry City Aktiv 136 / 132 40% 1 05.10.2026 -
Alejandro Zendejas Club America Aktiv 147 / 142 40% 1 04.10.2026 -
Boubacar Kamara Aston Villa Aktiv 164 / 156 40% 2 01.10.2026 -
Ebere Eze Arsenal Aktiv 149 / 154 40% 1 27.09.2026 -
Lewis Ferguson Bologna Aktiv 138 / 147 40% 1 26.09.2026 -
Yankuba Minteh Brighton Aktiv 154 / 146 40% 1 23.09.2026 -
Xaver Schlager Nottingham Forest Aktiv 150 / 147 40% 1 21.09.2026 -
Duvan Rangel La Equidad Aktiv 124 / 126 40% 1 21.09.2026 -
Agustín Palavecino Cruz Azul Aktiv 127 / 135 40% 1 20.09.2026 -
Ángel Correa River Plate Aktiv 150 / 145 40% 2 18.09.2026 -
Orbelín Pineda Monterrey Aktiv 133 / 127 40% 1 18.09.2026 -
Micky van de Ven Tottenham Aktiv 160 / 150 40% 1 10.09.2026 -
Callum Hudson-Odoi Nottingham Forest Aktiv 148 / 155 40% 1 07.09.2026 -
Dimitri Bisoli Cesena Aktiv 114 / 123 55% 1 24.08.2026 -